Aérodrome :
LOGIN :

S'inscrire | Disclaimer

   EN    FR    IT 

 










Légende :    VFR   VFR Marginal   IFR   IFR Intensif   IFR Très Intensif
Visi : 
Plafond : 
>= 8 km
>= 3000ft
5 à 8 km
1000 à 3000 ft
1500m à 5 km
500 à 1000 ft
800 à 1500m
200 à 500 ft
< 800m
< 200 ft
Symboles :   Orages  Brouillard  Fortes neiges  Fortes précipitations  Vent > 20 kt
SIGMETs :   Divers  Orages  Givrage  Turbulence  Onde Orograph.  Cendres Volcan.






- Altitude de l'aérodrome : 499 ft
- Code IATA : TLS


LFBO - Toulouse / Blagnac

DERNIER METAR :
  • 032130Z AUTO 30007KT CAVOK 17/11 Q1024 NOSIG

METARs EXPIRÉS :
  • 032100Z AUTO 30006KT CAVOK 18/11 Q1024 NOSIG
  • 032030Z AUTO 30005KT CAVOK 18/11 Q1023 NOSIG
  • 032000Z AUTO 31007KT 9999 -RA NSC 19/11 Q1023 NOSIG
  • 031930Z AUTO 31011KT CAVOK 20/10 Q1023 NOSIG
  • 031900Z AUTO 31011KT CAVOK 22/10 Q1023 NOSIG

TAF TAF LFBO
Valide du 03 à 18h jusqu'au 05 à 00h UTC


031700Z 0318/0424 31012KT CAVOK
TEMPO 0400/0406 VRB02KT
ATIS : +33 5 62 74 66 36



MET'MAP, la Météo Aéronautique d'un coup d'oeil ! - Copyright ORBIFLY Décembre 2007 - Disclaimer

ORBIFLY MET'MAP TEAM :

Programmation & Développement : Alexandra Zaïnal
Sur une idée originale de : Baudouin d'Aumeries
Assistance à la programmation : Marc-Olivier Méhu
Soutien technique & logistique : Manuel Goepfert

Contact : metmap@orbifly.com




SOURCES & CREDITS :

   NOAA